createdAt,value
2022-10-22T00:00:16.871Z,30.157
2022-10-22T00:05:16.737Z,30.157
2022-10-22T00:10:16.683Z,30.159
2022-10-22T00:15:16.788Z,30.162
2022-10-22T00:20:16.722Z,30.160
2022-10-22T00:25:16.755Z,30.160
2022-10-22T00:30:16.807Z,30.160
2022-10-22T00:35:17.027Z,30.162
2022-10-22T00:40:16.884Z,30.166
2022-10-22T00:45:16.935Z,30.167
2022-10-22T00:50:16.841Z,30.167
2022-10-22T00:55:17.095Z,30.171
2022-10-22T01:00:16.815Z,30.169
2022-10-22T01:05:16.832Z,30.170
2022-10-22T01:10:16.847Z,30.172
2022-10-22T01:15:17.068Z,30.175
2022-10-22T01:20:16.939Z,30.173
2022-10-22T01:25:16.863Z,30.178
2022-10-22T01:30:16.928Z,30.178
2022-10-22T01:35:17.054Z,30.180
2022-10-22T01:40:16.876Z,30.179
2022-10-22T01:45:16.945Z,30.180
2022-10-22T01:50:17.027Z,30.181
2022-10-22T01:55:16.864Z,30.185
2022-10-22T02:00:16.946Z,30.183
2022-10-22T02:05:17.052Z,30.189
2022-10-22T02:10:17.226Z,30.191
2022-10-22T02:15:16.991Z,30.190
2022-10-22T02:20:17.022Z,30.192
2022-10-22T02:25:17.000Z,30.195
2022-10-22T02:30:22.511Z,30.194
2022-10-22T02:35:16.986Z,30.196
2022-10-22T02:40:17.086Z,30.196
2022-10-22T02:45:17.281Z,30.199
2022-10-22T02:50:17.067Z,30.198
2022-10-22T02:55:17.113Z,30.199
2022-10-22T03:00:17.111Z,30.202
2022-10-22T03:05:17.048Z,30.199
2022-10-22T03:10:17.076Z,30.201
2022-10-22T03:15:17.236Z,30.201
2022-10-22T03:20:17.256Z,30.203
2022-10-22T03:25:17.207Z,30.203
2022-10-22T03:30:17.175Z,30.202
2022-10-22T03:35:17.183Z,30.204
2022-10-22T03:40:17.141Z,30.204
2022-10-22T03:45:17.188Z,30.206
2022-10-22T03:50:17.272Z,30.205
2022-10-22T03:55:17.282Z,30.205
2022-10-22T04:00:16.174Z,30.205
2022-10-22T04:05:16.196Z,30.204
2022-10-22T04:10:16.290Z,30.208
2022-10-22T04:15:16.389Z,30.207
2022-10-22T04:20:16.255Z,30.209
2022-10-22T04:25:16.250Z,30.206
2022-10-22T04:30:16.258Z,30.207
2022-10-22T04:35:16.318Z,30.207
2022-10-22T04:40:16.277Z,30.208
2022-10-22T04:45:16.400Z,30.208
2022-10-22T04:50:16.338Z,30.208
2022-10-22T04:55:16.261Z,30.207
2022-10-22T05:00:16.277Z,30.209
2022-10-22T05:05:16.346Z,30.209
2022-10-22T05:10:16.384Z,30.211
2022-10-22T05:15:16.293Z,30.208
2022-10-22T05:20:16.512Z,30.211
2022-10-22T05:25:16.392Z,30.210
2022-10-22T05:30:16.411Z,30.211
2022-10-22T05:35:16.454Z,30.209
2022-10-22T05:40:26.670Z,30.212
2022-10-22T05:45:16.419Z,30.216
2022-10-22T05:50:16.701Z,30.214
2022-10-22T05:55:16.469Z,30.216
2022-10-22T06:00:16.637Z,30.218
2022-10-22T06:05:16.468Z,30.218
2022-10-22T06:10:16.490Z,30.221
2022-10-22T06:15:16.529Z,30.222
2022-10-22T06:20:16.620Z,30.221
2022-10-22T06:25:16.623Z,30.224
2022-10-22T06:30:16.484Z,30.222
2022-10-22T06:35:16.463Z,30.220
2022-10-22T06:40:16.548Z,30.222
2022-10-22T06:45:16.497Z,30.222
2022-10-22T06:50:16.547Z,30.222
2022-10-22T06:55:16.570Z,30.222
2022-10-22T07:00:16.637Z,30.221
2022-10-22T07:05:16.538Z,30.220
2022-10-22T07:10:16.547Z,30.219
2022-10-22T07:15:16.572Z,30.220
2022-10-22T07:20:16.742Z,30.219
2022-10-22T07:25:16.642Z,30.216
2022-10-22T07:30:16.648Z,30.215
2022-10-22T07:35:16.658Z,30.216
2022-10-22T07:40:16.885Z,30.216
2022-10-22T07:45:16.628Z,30.217
2022-10-22T07:50:16.646Z,30.218
2022-10-22T07:55:16.663Z,30.216
2022-10-22T08:00:17.803Z,30.215
2022-10-22T08:05:16.652Z,30.214
2022-10-22T08:10:16.683Z,30.211
2022-10-22T08:15:16.766Z,30.213
2022-10-22T08:20:16.703Z,30.212
2022-10-22T08:25:16.786Z,30.213
2022-10-22T08:30:16.727Z,30.213
2022-10-22T08:35:17.701Z,30.218
2022-10-22T08:40:16.783Z,30.220
2022-10-22T08:45:16.942Z,30.222
2022-10-22T08:50:16.749Z,30.221
2022-10-22T08:55:16.795Z,30.219
2022-10-22T09:00:16.790Z,30.224
2022-10-22T09:05:16.884Z,30.228
2022-10-22T09:10:16.900Z,30.227
2022-10-22T09:15:17.043Z,30.229
2022-10-22T09:20:17.099Z,30.227
2022-10-22T09:25:16.829Z,30.226
2022-10-22T09:30:16.821Z,30.227
2022-10-22T09:35:16.881Z,30.231
2022-10-22T09:40:17.024Z,30.232
2022-10-22T09:45:17.044Z,30.232
2022-10-22T09:50:16.989Z,30.236
2022-10-22T09:55:17.194Z,30.235
2022-10-22T10:00:17.064Z,30.235
2022-10-22T10:05:16.943Z,30.233
2022-10-22T10:10:17.030Z,30.235
2022-10-22T10:15:17.054Z,30.237
2022-10-22T10:20:16.950Z,30.239
2022-10-22T10:25:16.926Z,30.241
2022-10-22T10:30:17.039Z,30.243
2022-10-22T10:35:17.055Z,30.244
2022-10-22T10:40:16.978Z,30.247
2022-10-22T10:45:17.066Z,30.247
2022-10-22T10:50:17.060Z,30.245
2022-10-22T10:55:17.026Z,30.245
2022-10-22T11:00:17.046Z,30.243
2022-10-22T11:05:17.071Z,30.243
2022-10-22T11:10:17.191Z,30.244
2022-10-22T11:15:17.066Z,30.243
2022-10-22T11:20:17.064Z,30.248
2022-10-22T11:25:17.109Z,30.248
2022-10-22T11:30:17.080Z,30.247
2022-10-22T11:35:17.167Z,30.253
2022-10-22T11:40:17.176Z,30.254
2022-10-22T11:45:17.369Z,30.252
2022-10-22T11:50:17.135Z,30.257
2022-10-22T11:55:17.103Z,30.257
2022-10-22T12:00:17.129Z,30.257
2022-10-22T12:05:17.163Z,30.262
2022-10-22T12:10:18.479Z,30.257
2022-10-22T12:15:17.225Z,30.261
2022-10-22T12:20:17.162Z,30.263
2022-10-22T12:25:17.208Z,30.266
2022-10-22T12:30:17.190Z,30.265
2022-10-22T12:35:17.236Z,30.271
2022-10-22T12:40:17.261Z,30.273
2022-10-22T12:45:17.228Z,30.275
2022-10-22T12:50:17.362Z,30.276
2022-10-22T12:55:17.271Z,30.277
2022-10-22T13:00:17.323Z,30.276
2022-10-22T13:05:17.334Z,30.279
2022-10-22T13:10:17.296Z,30.280
2022-10-22T13:15:17.519Z,30.281
2022-10-22T13:20:17.477Z,30.283
2022-10-22T13:25:17.329Z,30.286
2022-10-22T13:30:17.495Z,30.289
2022-10-22T13:35:17.557Z,30.288
2022-10-22T13:40:17.374Z,30.290
2022-10-22T13:45:17.436Z,30.291
2022-10-22T13:50:15.379Z,30.289
2022-10-22T13:55:15.373Z,30.286
2022-10-22T14:00:15.483Z,30.285
2022-10-22T14:05:15.444Z,30.287
2022-10-22T14:10:15.420Z,30.291
2022-10-22T14:15:15.409Z,30.291
2022-10-22T14:20:15.421Z,30.292
2022-10-22T14:25:15.473Z,30.295
2022-10-22T14:30:15.643Z,30.293
2022-10-22T14:35:15.473Z,30.291
2022-10-22T14:40:15.564Z,30.297
2022-10-22T14:45:15.517Z,30.299
2022-10-22T14:50:15.584Z,30.294
2022-10-22T14:55:15.500Z,30.295
2022-10-22T15:00:15.570Z,30.294
2022-10-22T15:05:15.672Z,30.292
2022-10-22T15:10:15.553Z,30.292
2022-10-22T15:15:17.303Z,30.294
2022-10-22T15:20:15.492Z,30.291
2022-10-22T15:25:15.604Z,30.288
2022-10-22T15:30:15.526Z,30.288
2022-10-22T15:35:15.716Z,30.290
2022-10-22T15:40:15.702Z,30.294
2022-10-22T15:45:15.618Z,30.287
2022-10-22T15:50:15.574Z,30.282
2022-10-22T15:55:15.568Z,30.282
2022-10-22T16:00:15.765Z,30.283
2022-10-22T16:05:15.646Z,30.284
2022-10-22T16:10:15.747Z,30.283
2022-10-22T16:15:15.701Z,30.282
2022-10-22T16:20:15.698Z,30.280
2022-10-22T16:25:15.762Z,30.279
2022-10-22T16:30:15.707Z,30.279
2022-10-22T16:35:15.700Z,30.276
2022-10-22T16:40:15.675Z,30.273
2022-10-22T16:45:21.186Z,30.273
2022-10-22T16:50:15.767Z,30.273
2022-10-22T16:55:15.861Z,30.270
2022-10-22T17:00:15.844Z,30.269
2022-10-22T17:05:15.835Z,30.273
2022-10-22T17:10:15.800Z,30.268
2022-10-22T17:15:15.795Z,30.267
2022-10-22T17:20:15.884Z,30.269
2022-10-22T17:25:15.842Z,30.271
2022-10-22T17:30:15.857Z,30.269
2022-10-22T17:35:15.847Z,30.269
2022-10-22T17:40:15.945Z,30.270
2022-10-22T17:45:15.885Z,30.271
2022-10-22T17:50:16.016Z,30.273
2022-10-22T17:55:15.750Z,30.275
2022-10-22T18:00:15.909Z,30.276
2022-10-22T18:05:15.927Z,30.277
2022-10-22T18:10:15.905Z,30.280
2022-10-22T18:15:15.867Z,30.282
2022-10-22T18:20:15.919Z,30.280
2022-10-22T18:25:15.952Z,30.279
2022-10-22T18:30:15.934Z,30.274
2022-10-22T18:35:16.135Z,30.279
2022-10-22T18:40:15.939Z,30.275
2022-10-22T18:45:15.959Z,30.276
2022-10-22T18:50:15.964Z,30.275
2022-10-22T18:55:16.041Z,30.276
2022-10-22T19:00:15.957Z,30.274
2022-10-22T19:05:16.042Z,30.276
2022-10-22T19:10:16.097Z,30.275
2022-10-22T19:15:16.110Z,30.275
2022-10-22T19:20:15.970Z,30.276
2022-10-22T19:25:16.094Z,30.274
2022-10-22T19:30:16.034Z,30.273
2022-10-22T19:35:16.116Z,30.275
2022-10-22T19:40:16.171Z,30.272
2022-10-22T19:45:16.180Z,30.277
2022-10-22T19:50:16.082Z,30.276
2022-10-22T19:55:16.013Z,30.273
2022-10-22T20:00:16.135Z,30.276
2022-10-22T20:05:16.221Z,30.275
2022-10-22T20:10:16.171Z,30.278
2022-10-22T20:15:16.163Z,30.278
2022-10-22T20:20:16.404Z,30.277
2022-10-22T20:25:16.199Z,30.282
2022-10-22T20:30:22.720Z,30.278
2022-10-22T20:35:16.218Z,30.275
2022-10-22T20:40:16.290Z,30.275
2022-10-22T20:45:16.226Z,30.274
2022-10-22T20:50:16.225Z,30.273
2022-10-22T20:55:21.832Z,30.274
2022-10-22T21:00:16.242Z,30.274
2022-10-22T21:05:16.273Z,30.272
2022-10-22T21:10:16.310Z,30.272
2022-10-22T21:15:16.542Z,30.275
2022-10-22T21:20:17.882Z,30.272
2022-10-22T21:25:16.339Z,30.277
2022-10-22T21:30:16.433Z,30.277
2022-10-22T21:35:16.299Z,30.277
2022-10-22T21:40:16.295Z,30.275
2022-10-22T21:45:19.887Z,30.274
2022-10-22T21:50:17.419Z,30.276
2022-10-22T21:55:16.411Z,30.274
2022-10-22T22:00:16.391Z,30.275
2022-10-22T22:05:16.470Z,30.277
2022-10-22T22:10:16.399Z,30.280
2022-10-22T22:15:16.499Z,30.280
2022-10-22T22:20:16.602Z,30.280
2022-10-22T22:25:16.387Z,30.279
2022-10-22T22:30:16.404Z,30.280
2022-10-22T22:35:16.476Z,30.284
2022-10-22T22:40:16.584Z,30.281
2022-10-22T22:45:16.437Z,30.285
2022-10-22T22:50:16.490Z,30.285
2022-10-22T22:55:16.550Z,30.288
2022-10-22T23:00:16.546Z,30.285
2022-10-22T23:05:16.583Z,30.283
2022-10-22T23:10:16.535Z,30.287
2022-10-22T23:15:16.557Z,30.287
2022-10-22T23:20:16.654Z,30.287
2022-10-22T23:25:16.477Z,30.289
2022-10-22T23:30:16.667Z,30.288
2022-10-22T23:35:16.727Z,30.294
2022-10-22T23:40:16.551Z,30.292
2022-10-22T23:45:16.539Z,30.296
2022-10-22T23:50:16.626Z,30.299
2022-10-22T23:55:16.874Z,30.302
